sensor_id;sensor_type;location;lat;lon;timestamp;temperature;humidity
43647;DHT22;56152;49.996;18.980;2022-12-07T00:03:37;1.80;99.90
43647;DHT22;56152;49.996;18.980;2022-12-07T00:08:42;1.80;99.90
43647;DHT22;56152;49.996;18.980;2022-12-07T00:13:51;1.70;99.90
43647;DHT22;56152;49.996;18.980;2022-12-07T00:18:55;1.70;99.90
43647;DHT22;56152;49.996;18.980;2022-12-07T00:23:58;1.70;99.90
43647;DHT22;56152;49.996;18.980;2022-12-07T00:29:04;1.70;99.90
43647;DHT22;56152;49.996;18.980;2022-12-07T00:34:09;1.80;99.90
43647;DHT22;56152;49.996;18.980;2022-12-07T00:39:16;1.80;99.90
43647;DHT22;56152;49.996;18.980;2022-12-07T00:44:20;1.80;99.90
43647;DHT22;56152;49.996;18.980;2022-12-07T00:49:22;1.80;99.90
43647;DHT22;56152;49.996;18.980;2022-12-07T00:54:24;1.90;99.90
43647;DHT22;56152;49.996;18.980;2022-12-07T00:59:28;1.90;99.90
43647;DHT22;56152;49.996;18.980;2022-12-07T01:04:33;1.90;99.90
43647;DHT22;56152;49.996;18.980;2022-12-07T01:09:36;1.90;99.90
43647;DHT22;56152;49.996;18.980;2022-12-07T01:14:41;2.00;99.90
43647;DHT22;56152;49.996;18.980;2022-12-07T01:19:44;2.00;99.90
43647;DHT22;56152;49.996;18.980;2022-12-07T01:24:46;2.00;99.90
43647;DHT22;56152;49.996;18.980;2022-12-07T01:29:53;2.00;99.90
43647;DHT22;56152;49.996;18.980;2022-12-07T01:35:06;2.00;99.90
43647;DHT22;56152;49.996;18.980;2022-12-07T01:40:11;2.00;99.90
43647;DHT22;56152;49.996;18.980;2022-12-07T01:45:45;2.10;99.90
43647;DHT22;56152;49.996;18.980;2022-12-07T01:50:49;2.10;99.90
43647;DHT22;56152;49.996;18.980;2022-12-07T01:55:59;2.10;99.90
43647;DHT22;56152;49.996;18.980;2022-12-07T02:01:03;2.10;99.90
43647;DHT22;56152;49.996;18.980;2022-12-07T02:06:07;2.10;99.90
43647;DHT22;56152;49.996;18.980;2022-12-07T02:11:13;2.20;99.90
43647;DHT22;56152;49.996;18.980;2022-12-07T02:16:38;2.20;99.90
43647;DHT22;56152;49.996;18.980;2022-12-07T02:21:47;2.20;99.90
43647;DHT22;56152;49.996;18.980;2022-12-07T02:27:27;2.20;99.90
43647;DHT22;56152;49.996;18.980;2022-12-07T02:32:50;2.20;99.90
43647;DHT22;56152;49.996;18.980;2022-12-07T02:38:02;2.20;99.90
43647;DHT22;56152;49.996;18.980;2022-12-07T02:43:19;2.30;99.90
43647;DHT22;56152;49.996;18.980;2022-12-07T02:48:25;2.30;99.90
43647;DHT22;56152;49.996;18.980;2022-12-07T02:53:36;2.30;99.90
43647;DHT22;56152;49.996;18.980;2022-12-07T02:58:49;2.30;99.90
43647;DHT22;56152;49.996;18.980;2022-12-07T03:04:02;2.30;99.90
43647;DHT22;56152;49.996;18.980;2022-12-07T03:09:13;2.30;99.90
43647;DHT22;56152;49.996;18.980;2022-12-07T03:14:20;2.30;99.90
43647;DHT22;56152;49.996;18.980;2022-12-07T03:19:26;2.30;99.90
43647;DHT22;56152;49.996;18.980;2022-12-07T03:24:33;2.30;99.90
43647;DHT22;56152;49.996;18.980;2022-12-07T03:29:41;2.30;99.90
43647;DHT22;56152;49.996;18.980;2022-12-07T03:34:58;2.30;99.90
43647;DHT22;56152;49.996;18.980;2022-12-07T03:40:09;2.30;99.90
43647;DHT22;56152;49.996;18.980;2022-12-07T03:45:13;2.30;99.90
43647;DHT22;56152;49.996;18.980;2022-12-07T03:50:28;2.30;99.90
43647;DHT22;56152;49.996;18.980;2022-12-07T03:55:35;2.30;99.90
43647;DHT22;56152;49.996;18.980;2022-12-07T04:00:40;2.30;99.90
43647;DHT22;56152;49.996;18.980;2022-12-07T04:05:44;2.30;99.90
43647;DHT22;56152;49.996;18.980;2022-12-07T04:10:47;2.30;99.90
43647;DHT22;56152;49.996;18.980;2022-12-07T04:15:49;2.30;99.90
43647;DHT22;56152;49.996;18.980;2022-12-07T04:20:53;2.30;99.90
43647;DHT22;56152;49.996;18.980;2022-12-07T04:25:55;2.20;99.90
43647;DHT22;56152;49.996;18.980;2022-12-07T04:31:06;2.20;99.90
43647;DHT22;56152;49.996;18.980;2022-12-07T04:36:10;2.20;99.90
43647;DHT22;56152;49.996;18.980;2022-12-07T04:41:13;2.20;99.90
43647;DHT22;56152;49.996;18.980;2022-12-07T04:46:16;2.20;99.90
43647;DHT22;56152;49.996;18.980;2022-12-07T04:51:22;2.20;99.90
43647;DHT22;56152;49.996;18.980;2022-12-07T04:56:24;2.10;99.90
43647;DHT22;56152;49.996;18.980;2022-12-07T05:01:32;2.00;99.90
43647;DHT22;56152;49.996;18.980;2022-12-07T05:06:36;1.80;99.90
43647;DHT22;56152;49.996;18.980;2022-12-07T05:11:44;1.80;99.90
43647;DHT22;56152;49.996;18.980;2022-12-07T05:16:49;1.70;99.90
43647;DHT22;56152;49.996;18.980;2022-12-07T05:21:53;1.70;99.90
43647;DHT22;56152;49.996;18.980;2022-12-07T05:26:57;1.60;99.90
43647;DHT22;56152;49.996;18.980;2022-12-07T05:32:00;1.60;99.90
43647;DHT22;56152;49.996;18.980;2022-12-07T05:37:06;1.50;99.90
43647;DHT22;56152;49.996;18.980;2022-12-07T05:42:09;1.50;99.90
43647;DHT22;56152;49.996;18.980;2022-12-07T05:47:15;1.40;99.90
43647;DHT22;56152;49.996;18.980;2022-12-07T05:52:19;1.40;99.90
43647;DHT22;56152;49.996;18.980;2022-12-07T05:57:22;1.40;99.90
43647;DHT22;56152;49.996;18.980;2022-12-07T06:02:24;1.40;99.90
43647;DHT22;56152;49.996;18.980;2022-12-07T06:07:29;1.40;99.90
43647;DHT22;56152;49.996;18.980;2022-12-07T06:12:31;1.40;99.90
43647;DHT22;56152;49.996;18.980;2022-12-07T06:17:39;1.30;99.90
43647;DHT22;56152;49.996;18.980;2022-12-07T06:22:43;1.30;99.90
43647;DHT22;56152;49.996;18.980;2022-12-07T06:27:49;1.30;99.90
43647;DHT22;56152;49.996;18.980;2022-12-07T06:32:52;1.20;99.90
43647;DHT22;56152;49.996;18.980;2022-12-07T06:37:56;1.20;99.90
43647;DHT22;56152;49.996;18.980;2022-12-07T06:42:59;1.20;99.90
43647;DHT22;56152;49.996;18.980;2022-12-07T06:48:17;1.20;99.90
43647;DHT22;56152;49.996;18.980;2022-12-07T06:53:22;1.10;99.90
43647;DHT22;56152;49.996;18.980;2022-12-07T06:58:27;1.20;99.90
43647;DHT22;56152;49.996;18.980;2022-12-07T07:03:29;1.20;99.90
43647;DHT22;56152;49.996;18.980;2022-12-07T07:08:33;1.30;99.90
43647;DHT22;56152;49.996;18.980;2022-12-07T07:13:36;1.30;99.90
43647;DHT22;56152;49.996;18.980;2022-12-07T07:18:38;1.40;99.90
43647;DHT22;56152;49.996;18.980;2022-12-07T07:23:43;1.40;99.90
43647;DHT22;56152;49.996;18.980;2022-12-07T07:28:47;1.30;99.90
43647;DHT22;56152;49.996;18.980;2022-12-07T07:33:55;1.30;99.90
43647;DHT22;56152;49.996;18.980;2022-12-07T07:38:59;1.30;99.90
43647;DHT22;56152;49.996;18.980;2022-12-07T07:44:02;1.40;99.90
43647;DHT22;56152;49.996;18.980;2022-12-07T07:49:11;1.40;99.90
43647;DHT22;56152;49.996;18.980;2022-12-07T07:54:16;1.50;99.90
43647;DHT22;56152;49.996;18.980;2022-12-07T07:59:19;1.50;99.90
43647;DHT22;56152;49.996;18.980;2022-12-07T08:04:23;1.60;99.90
43647;DHT22;56152;49.996;18.980;2022-12-07T08:09:28;1.60;99.90
43647;DHT22;56152;49.996;18.980;2022-12-07T08:14:31;1.70;99.90
43647;DHT22;56152;49.996;18.980;2022-12-07T08:19:34;1.80;99.90
43647;DHT22;56152;49.996;18.980;2022-12-07T08:24:38;1.80;99.90
43647;DHT22;56152;49.996;18.980;2022-12-07T08:29:43;1.80;99.90
43647;DHT22;56152;49.996;18.980;2022-12-07T08:34:50;1.90;99.90
43647;DHT22;56152;49.996;18.980;2022-12-07T08:39:58;1.90;99.90
43647;DHT22;56152;49.996;18.980;2022-12-07T08:45:01;2.00;99.90
43647;DHT22;56152;49.996;18.980;2022-12-07T08:50:06;2.00;99.90
43647;DHT22;56152;49.996;18.980;2022-12-07T08:55:14;2.00;99.90
43647;DHT22;56152;49.996;18.980;2022-12-07T09:00:21;2.00;99.90
43647;DHT22;56152;49.996;18.980;2022-12-07T09:05:24;2.00;99.90
43647;DHT22;56152;49.996;18.980;2022-12-07T09:10:28;2.00;99.90
43647;DHT22;56152;49.996;18.980;2022-12-07T09:15:30;2.00;99.90
43647;DHT22;56152;49.996;18.980;2022-12-07T09:20:41;2.00;99.90
43647;DHT22;56152;49.996;18.980;2022-12-07T09:25:50;2.00;99.90
43647;DHT22;56152;49.996;18.980;2022-12-07T09:30:52;2.10;99.90
43647;DHT22;56152;49.996;18.980;2022-12-07T09:35:58;2.10;99.90
43647;DHT22;56152;49.996;18.980;2022-12-07T09:41:07;2.10;99.90
43647;DHT22;56152;49.996;18.980;2022-12-07T09:46:11;2.20;99.90
43647;DHT22;56152;49.996;18.980;2022-12-07T09:51:17;2.20;99.90
43647;DHT22;56152;49.996;18.980;2022-12-07T09:56:31;2.30;99.90
43647;DHT22;56152;49.996;18.980;2022-12-07T10:01:33;2.30;99.90
43647;DHT22;56152;49.996;18.980;2022-12-07T10:06:35;2.40;99.90
43647;DHT22;56152;49.996;18.980;2022-12-07T10:12:02;2.50;99.90
43647;DHT22;56152;49.996;18.980;2022-12-07T10:17:29;2.60;99.90
43647;DHT22;56152;49.996;18.980;2022-12-07T10:22:35;2.70;99.90
43647;DHT22;56152;49.996;18.980;2022-12-07T10:27:40;2.70;99.90
43647;DHT22;56152;49.996;18.980;2022-12-07T10:32:47;2.90;99.90
43647;DHT22;56152;49.996;18.980;2022-12-07T10:37:49;2.90;99.90
43647;DHT22;56152;49.996;18.980;2022-12-07T10:43:04;2.90;99.90
43647;DHT22;56152;49.996;18.980;2022-12-07T10:48:10;3.00;99.90
43647;DHT22;56152;49.996;18.980;2022-12-07T10:53:42;3.10;99.90
43647;DHT22;56152;49.996;18.980;2022-12-07T10:58:58;3.30;99.90
43647;DHT22;56152;49.996;18.980;2022-12-07T11:04:21;3.40;99.70
43647;DHT22;56152;49.996;18.980;2022-12-07T11:09:52;3.50;99.60
43647;DHT22;56152;49.996;18.980;2022-12-07T11:15:08;3.40;99.40
43647;DHT22;56152;49.996;18.980;2022-12-07T11:20:24;3.40;99.40
43647;DHT22;56152;49.996;18.980;2022-12-07T11:25:32;3.30;99.30
43647;DHT22;56152;49.996;18.980;2022-12-07T11:30:52;3.30;99.30
43647;DHT22;56152;49.996;18.980;2022-12-07T11:36:14;3.30;99.30
43647;DHT22;56152;49.996;18.980;2022-12-07T11:41:35;3.20;99.20
43647;DHT22;56152;49.996;18.980;2022-12-07T11:46:49;3.20;99.10
43647;DHT22;56152;49.996;18.980;2022-12-07T11:51:54;3.20;99.10
43647;DHT22;56152;49.996;18.980;2022-12-07T11:57:03;3.20;99.10
43647;DHT22;56152;49.996;18.980;2022-12-07T12:02:13;3.30;99.10
43647;DHT22;56152;49.996;18.980;2022-12-07T12:07:20;3.40;99.10
43647;DHT22;56152;49.996;18.980;2022-12-07T12:12:46;3.50;98.90
43647;DHT22;56152;49.996;18.980;2022-12-07T12:18:23;3.70;99.00
43647;DHT22;56152;49.996;18.980;2022-12-07T12:23:39;4.10;98.80
43647;DHT22;56152;49.996;18.980;2022-12-07T12:28:50;4.20;98.50
43647;DHT22;56152;49.996;18.980;2022-12-07T12:33:58;4.40;98.40
43647;DHT22;56152;49.996;18.980;2022-12-07T12:39:12;4.40;98.10
43647;DHT22;56152;49.996;18.980;2022-12-07T12:44:39;4.40;98.00
43647;DHT22;56152;49.996;18.980;2022-12-07T12:49:43;4.30;97.90
43647;DHT22;56152;49.996;18.980;2022-12-07T12:54:59;4.10;97.90
43647;DHT22;56152;49.996;18.980;2022-12-07T13:00:15;4.00;98.00
43647;DHT22;56152;49.996;18.980;2022-12-07T13:05:35;3.80;97.90
43647;DHT22;56152;49.996;18.980;2022-12-07T13:10:45;3.60;98.00
43647;DHT22;56152;49.996;18.980;2022-12-07T13:15:50;3.50;98.00
43647;DHT22;56152;49.996;18.980;2022-12-07T13:20:56;3.40;98.00
43647;DHT22;56152;49.996;18.980;2022-12-07T13:26:14;3.40;98.10
43647;DHT22;56152;49.996;18.980;2022-12-07T13:31:34;3.40;98.00
43647;DHT22;56152;49.996;18.980;2022-12-07T13:36:43;3.50;97.90
43647;DHT22;56152;49.996;18.980;2022-12-07T13:41:50;3.50;97.80
43647;DHT22;56152;49.996;18.980;2022-12-07T13:46:59;3.40;97.70
43647;DHT22;56152;49.996;18.980;2022-12-07T13:52:16;3.30;97.70
43647;DHT22;56152;49.996;18.980;2022-12-07T13:57:19;3.20;97.80
43647;DHT22;56152;49.996;18.980;2022-12-07T14:02:23;3.20;97.80
43647;DHT22;56152;49.996;18.980;2022-12-07T14:07:32;3.10;97.80
43647;DHT22;56152;49.996;18.980;2022-12-07T14:12:36;3.10;97.80
43647;DHT22;56152;49.996;18.980;2022-12-07T14:17:50;3.00;97.80
43647;DHT22;56152;49.996;18.980;2022-12-07T14:22:56;3.00;97.80
43647;DHT22;56152;49.996;18.980;2022-12-07T14:28:00;3.00;97.70
43647;DHT22;56152;49.996;18.980;2022-12-07T14:33:07;2.90;97.70
43647;DHT22;56152;49.996;18.980;2022-12-07T14:38:13;2.90;97.70
43647;DHT22;56152;49.996;18.980;2022-12-07T14:43:16;2.90;97.90
43647;DHT22;56152;49.996;18.980;2022-12-07T14:48:23;2.90;97.60
43647;DHT22;56152;49.996;18.980;2022-12-07T14:53:30;2.80;97.50
43647;DHT22;56152;49.996;18.980;2022-12-07T14:58:34;2.80;97.50
43647;DHT22;56152;49.996;18.980;2022-12-07T15:03:39;2.80;97.40
43647;DHT22;56152;49.996;18.980;2022-12-07T15:08:44;2.80;97.40
43647;DHT22;56152;49.996;18.980;2022-12-07T15:13:46;2.80;97.30
43647;DHT22;56152;49.996;18.980;2022-12-07T15:19:06;2.80;97.30
43647;DHT22;56152;49.996;18.980;2022-12-07T15:24:12;2.70;97.20
43647;DHT22;56152;49.996;18.980;2022-12-07T15:29:15;2.70;97.20
43647;DHT22;56152;49.996;18.980;2022-12-07T15:34:17;2.70;97.20
43647;DHT22;56152;49.996;18.980;2022-12-07T15:39:21;2.60;97.10
43647;DHT22;56152;49.996;18.980;2022-12-07T15:44:23;2.60;97.10
43647;DHT22;56152;49.996;18.980;2022-12-07T15:49:43;2.60;97.10
43647;DHT22;56152;49.996;18.980;2022-12-07T15:54:48;2.50;97.00
43647;DHT22;56152;49.996;18.980;2022-12-07T15:59:50;2.50;97.00
43647;DHT22;56152;49.996;18.980;2022-12-07T16:04:55;2.50;97.00
43647;DHT22;56152;49.996;18.980;2022-12-07T16:10:09;2.50;97.00
43647;DHT22;56152;49.996;18.980;2022-12-07T16:15:12;2.50;97.00
43647;DHT22;56152;49.996;18.980;2022-12-07T16:20:24;2.60;96.80
43647;DHT22;56152;49.996;18.980;2022-12-07T16:25:40;2.70;96.60
43647;DHT22;56152;49.996;18.980;2022-12-07T16:30:45;2.70;96.50
43647;DHT22;56152;49.996;18.980;2022-12-07T16:35:49;2.70;96.40
43647;DHT22;56152;49.996;18.980;2022-12-07T16:40:56;2.70;96.40
43647;DHT22;56152;49.996;18.980;2022-12-07T16:46:01;2.60;96.30
43647;DHT22;56152;49.996;18.980;2022-12-07T16:51:05;2.50;96.40
43647;DHT22;56152;49.996;18.980;2022-12-07T16:56:16;2.30;96.40
43647;DHT22;56152;49.996;18.980;2022-12-07T17:01:22;2.30;96.50
43647;DHT22;56152;49.996;18.980;2022-12-07T17:06:26;2.20;96.50
43647;DHT22;56152;49.996;18.980;2022-12-07T17:11:31;2.10;96.50
43647;DHT22;56152;49.996;18.980;2022-12-07T17:16:33;2.10;96.60
43647;DHT22;56152;49.996;18.980;2022-12-07T17:21:37;2.00;96.60
43647;DHT22;56152;49.996;18.980;2022-12-07T17:26:43;2.00;96.70
43647;DHT22;56152;49.996;18.980;2022-12-07T17:31:47;1.90;96.70
43647;DHT22;56152;49.996;18.980;2022-12-07T17:36:49;1.90;96.70
43647;DHT22;56152;49.996;18.980;2022-12-07T17:42:00;1.80;96.80
43647;DHT22;56152;49.996;18.980;2022-12-07T17:47:19;1.80;97.00
43647;DHT22;56152;49.996;18.980;2022-12-07T17:52:22;1.80;96.80
43647;DHT22;56152;49.996;18.980;2022-12-07T17:57:43;1.80;96.80
43647;DHT22;56152;49.996;18.980;2022-12-07T18:02:45;1.80;96.80
43647;DHT22;56152;49.996;18.980;2022-12-07T18:07:47;1.70;96.90
43647;DHT22;56152;49.996;18.980;2022-12-07T18:12:51;1.80;96.90
43647;DHT22;56152;49.996;18.980;2022-12-07T18:18:17;1.80;97.00
43647;DHT22;56152;49.996;18.980;2022-12-07T18:23:22;1.80;96.90
43647;DHT22;56152;49.996;18.980;2022-12-07T18:28:26;1.80;96.90
43647;DHT22;56152;49.996;18.980;2022-12-07T18:33:28;1.90;96.90
43647;DHT22;56152;49.996;18.980;2022-12-07T18:38:30;1.90;96.90
43647;DHT22;56152;49.996;18.980;2022-12-07T18:43:38;2.00;96.90
43647;DHT22;56152;49.996;18.980;2022-12-07T18:48:44;2.00;96.80
43647;DHT22;56152;49.996;18.980;2022-12-07T18:53:47;2.00;96.80
43647;DHT22;56152;49.996;18.980;2022-12-07T18:59:01;2.00;96.80
43647;DHT22;56152;49.996;18.980;2022-12-07T19:04:22;2.00;96.70
43647;DHT22;56152;49.996;18.980;2022-12-07T19:09:24;2.00;96.70
43647;DHT22;56152;49.996;18.980;2022-12-07T19:14:30;1.90;96.70
43647;DHT22;56152;49.996;18.980;2022-12-07T19:19:37;1.90;96.80
43647;DHT22;56152;49.996;18.980;2022-12-07T19:24:42;1.90;97.10
43647;DHT22;56152;49.996;18.980;2022-12-07T19:29:49;1.90;96.80
43647;DHT22;56152;49.996;18.980;2022-12-07T19:34:53;2.00;96.80
43647;DHT22;56152;49.996;18.980;2022-12-07T19:39:57;2.00;96.80
43647;DHT22;56152;49.996;18.980;2022-12-07T19:45:08;2.10;96.70
43647;DHT22;56152;49.996;18.980;2022-12-07T19:50:17;2.10;96.60
43647;DHT22;56152;49.996;18.980;2022-12-07T19:55:21;2.10;96.60
43647;DHT22;56152;49.996;18.980;2022-12-07T20:00:27;2.10;96.50
43647;DHT22;56152;49.996;18.980;2022-12-07T20:05:29;2.10;96.50
43647;DHT22;56152;49.996;18.980;2022-12-07T20:10:33;2.10;96.50
43647;DHT22;56152;49.996;18.980;2022-12-07T20:15:42;2.10;96.50
43647;DHT22;56152;49.996;18.980;2022-12-07T20:20:52;2.10;96.40
43647;DHT22;56152;49.996;18.980;2022-12-07T20:25:54;2.10;96.40
43647;DHT22;56152;49.996;18.980;2022-12-07T20:31:01;2.10;96.40
43647;DHT22;56152;49.996;18.980;2022-12-07T20:36:08;2.00;96.40
43647;DHT22;56152;49.996;18.980;2022-12-07T20:41:12;2.00;96.40
43647;DHT22;56152;49.996;18.980;2022-12-07T20:46:30;2.10;96.40
43647;DHT22;56152;49.996;18.980;2022-12-07T20:51:33;2.00;96.30
43647;DHT22;56152;49.996;18.980;2022-12-07T20:56:35;2.10;96.30
43647;DHT22;56152;49.996;18.980;2022-12-07T21:01:39;2.00;96.60
43647;DHT22;56152;49.996;18.980;2022-12-07T21:06:42;2.10;96.30
43647;DHT22;56152;49.996;18.980;2022-12-07T21:11:45;2.00;96.20
43647;DHT22;56152;49.996;18.980;2022-12-07T21:16:50;2.10;96.20
43647;DHT22;56152;49.996;18.980;2022-12-07T21:21:54;2.10;96.20
43647;DHT22;56152;49.996;18.980;2022-12-07T21:26:58;2.10;96.10
43647;DHT22;56152;49.996;18.980;2022-12-07T21:32:02;2.10;96.10
43647;DHT22;56152;49.996;18.980;2022-12-07T21:37:07;2.10;96.10
43647;DHT22;56152;49.996;18.980;2022-12-07T21:42:15;2.00;96.10
43647;DHT22;56152;49.996;18.980;2022-12-07T21:47:19;2.00;96.10
43647;DHT22;56152;49.996;18.980;2022-12-07T21:52:30;2.00;96.10
43647;DHT22;56152;49.996;18.980;2022-12-07T21:57:33;2.00;96.10
43647;DHT22;56152;49.996;18.980;2022-12-07T22:02:41;2.00;96.10
43647;DHT22;56152;49.996;18.980;2022-12-07T22:07:45;2.00;96.10
43647;DHT22;56152;49.996;18.980;2022-12-07T22:12:49;2.00;96.10
43647;DHT22;56152;49.996;18.980;2022-12-07T22:17:52;2.00;96.10
43647;DHT22;56152;49.996;18.980;2022-12-07T22:22:54;2.00;96.10
43647;DHT22;56152;49.996;18.980;2022-12-07T22:27:56;2.00;96.10
43647;DHT22;56152;49.996;18.980;2022-12-07T22:33:00;2.00;96.10
43647;DHT22;56152;49.996;18.980;2022-12-07T22:38:03;2.00;96.10
43647;DHT22;56152;49.996;18.980;2022-12-07T22:43:07;2.00;96.10
43647;DHT22;56152;49.996;18.980;2022-12-07T22:48:27;2.00;96.10
43647;DHT22;56152;49.996;18.980;2022-12-07T22:53:29;1.90;96.20
43647;DHT22;56152;49.996;18.980;2022-12-07T22:58:32;1.90;96.10
43647;DHT22;56152;49.996;18.980;2022-12-07T23:03:36;2.00;96.20
43647;DHT22;56152;49.996;18.980;2022-12-07T23:08:39;2.00;96.20
43647;DHT22;56152;49.996;18.980;2022-12-07T23:13:41;2.00;96.20
43647;DHT22;56152;49.996;18.980;2022-12-07T23:18:46;2.00;96.20
43647;DHT22;56152;49.996;18.980;2022-12-07T23:23:48;2.00;96.20
43647;DHT22;56152;49.996;18.980;2022-12-07T23:28:52;2.00;96.20
43647;DHT22;56152;49.996;18.980;2022-12-07T23:33:56;2.00;96.20
43647;DHT22;56152;49.996;18.980;2022-12-07T23:38:58;2.00;96.10
43647;DHT22;56152;49.996;18.980;2022-12-07T23:44:00;2.00;96.10
43647;DHT22;56152;49.996;18.980;2022-12-07T23:49:05;2.10;96.10
43647;DHT22;56152;49.996;18.980;2022-12-07T23:54:12;2.10;96.10
43647;DHT22;56152;49.996;18.980;2022-12-07T23:59:15;2.10;96.10
